Time;durP1;ratioP1;P1;durP2;ratioP2;P2;SDS_P1;SDS_P2;PMS_P1;PMS_P2;Temp;Humidity;BMP_temperature;BMP_pressure;BME280_temperature;BME280_humidity;BME280_pressure;Samples;Min_cycle;Max_cycle;Signal;HPM_P1;HPM_P2
2022/06/24 00:01:14;;;;;;;;;;;22.20;67.00;;;;;;5046044;28;81992;-42
2022/06/24 00:03:43;;;;;;;;;;;22.20;67.00;;;;;;5046492;28;82016;-41
2022/06/24 00:06:15;;;;;;;;;;;22.20;67.00;;;;;;5045965;28;84756;-41
2022/06/24 00:08:52;;;;;;;;;;;22.20;67.00;;;;;;5046096;28;82703;-41
2022/06/24 00:11:25;;;;;;;;;;;22.20;67.00;;;;;;5027747;28;85711;-41
2022/06/24 00:13:50;;;;;;;;;;;22.20;67.00;;;;;;5045687;28;83274;-42
2022/06/24 00:16:16;;;;;;;;;;;22.20;67.00;;;;;;5046333;28;81366;-41
2022/06/24 00:18:42;;;;;;;;;;;22.20;66.90;;;;;;5046402;28;81870;-41
2022/06/24 00:21:12;;;;;;;;;;;22.10;67.00;;;;;;5048752;28;83032;-41
2022/06/24 00:23:38;;;;;;;;;;;22.10;66.90;;;;;;5045165;28;83298;-41
2022/06/24 00:26:03;;;;;;;;;;;22.10;67.10;;;;;;5045678;28;83050;-42
2022/06/24 00:28:29;;;;;;;;;;;22.10;67.10;;;;;;5045803;28;83385;-42
2022/06/24 00:30:55;;;;;;;;;;;22.00;67.00;;;;;;5045369;27;83344;-41
2022/06/24 00:33:22;;;;;;;;;;;22.10;67.10;;;;;;5045633;28;82705;-41
2022/06/24 00:35:49;;;;;;;;;;;22.00;67.00;;;;;;5045673;28;82080;-42
2022/06/24 00:38:32;;;;;;;;;;;22.10;67.20;;;;;;5045704;28;83845;-41
2022/06/24 00:41:11;;;;;;;;;;;22.00;67.00;;;;;;5045962;28;84124;-42
2022/06/24 00:43:38;;;;;;;;;;;22.00;67.20;;;;;;5048720;28;82060;-42
2022/06/24 00:46:06;;;;;;;;;;;22.00;67.20;;;;;;5045928;28;83371;-42
2022/06/24 00:48:34;;;;;;;;;;;21.90;67.20;;;;;;5045032;28;83020;-42
2022/06/24 00:50:59;;;;;;;;;;;21.90;67.30;;;;;;5045626;28;83319;-41
2022/06/24 00:53:25;;;;;;;;;;;21.90;67.20;;;;;;5045612;28;82928;-42
2022/06/24 00:55:51;;;;;;;;;;;21.90;67.20;;;;;;5045622;28;82158;-42
2022/06/24 00:58:16;;;;;;;;;;;21.90;67.20;;;;;;5045819;28;82362;-41
2022/06/24 01:00:43;;;;;;;;;;;21.90;67.10;;;;;;5045437;28;83153;-41
2022/06/24 01:03:09;;;;;;;;;;;21.90;67.20;;;;;;5045560;28;81939;-41
2022/06/24 01:05:35;;;;;;;;;;;21.80;67.20;;;;;;5048850;28;84360;-43
2022/06/24 01:08:08;;;;;;;;;;;21.90;67.20;;;;;;5045437;28;82029;-43
2022/06/24 01:10:34;;;;;;;;;;;21.80;67.20;;;;;;5044920;28;83484;-41
2022/06/24 01:12:59;;;;;;;;;;;21.80;67.20;;;;;;5044673;28;83733;-42
2022/06/24 01:15:25;;;;;;;;;;;21.80;67.20;;;;;;5045561;28;82019;-41
2022/06/24 01:17:50;;;;;;;;;;;21.80;67.30;;;;;;5045342;28;82892;-41
2022/06/24 01:20:16;;;;;;;;;;;21.80;67.30;;;;;;5044937;28;84338;-41
2022/06/24 01:22:42;;;;;;;;;;;21.70;67.40;;;;;;5045196;28;82086;-42
2022/06/24 01:25:08;;;;;;;;;;;21.70;67.30;;;;;;5027046;28;83770;-41
2022/06/24 01:27:34;;;;;;;;;;;21.70;67.30;;;;;;5047871;28;83059;-43
2022/06/24 01:29:59;;;;;;;;;;;21.70;67.30;;;;;;5045793;28;82211;-41
2022/06/24 01:32:25;;;;;;;;;;;21.60;67.40;;;;;;5045118;27;83021;-42
2022/06/24 01:34:50;;;;;;;;;;;21.70;67.30;;;;;;5045173;28;82148;-42
2022/06/24 01:37:16;;;;;;;;;;;21.70;67.30;;;;;;5046296;27;82957;-41
2022/06/24 01:39:41;;;;;;;;;;;21.60;67.40;;;;;;5047867;28;83165;-42
2022/06/24 01:42:07;;;;;;;;;;;21.60;67.90;;;;;;5049018;28;82158;-41
2022/06/24 01:44:33;;;;;;;;;;;21.60;67.30;;;;;;5048572;28;81883;-41
2022/06/24 01:46:58;;;;;;;;;;;21.70;67.40;;;;;;5048285;28;82056;-41
2022/06/24 01:49:24;;;;;;;;;;;21.60;67.50;;;;;;5051119;28;82270;-41
2022/06/24 01:51:51;;;;;;;;;;;21.60;67.50;;;;;;5048471;28;82979;-41
2022/06/24 01:54:16;;;;;;;;;;;21.50;67.40;;;;;;5048779;28;81565;-41
2022/06/24 01:56:42;;;;;;;;;;;21.60;67.50;;;;;;5048570;28;82479;-42
2022/06/24 01:59:07;;;;;;;;;;;21.60;67.50;;;;;;5048240;28;83535;-41
2022/06/24 02:01:33;;;;;;;;;;;21.50;67.50;;;;;;5047830;28;83294;-41
2022/06/24 02:03:58;;;;;;;;;;;21.50;67.50;;;;;;5048505;28;83462;-42
2022/06/24 02:06:24;;;;;;;;;;;21.50;67.50;;;;;;5048150;28;82953;-41
2022/06/24 02:08:49;;;;;;;;;;;21.50;67.50;;;;;;5050960;28;82123;-42
2022/06/24 02:14:00;;;;;;;;;;;21.50;67.50;;;;;;5046488;28;81995;-41
2022/06/24 02:16:26;;;;;;;;;;;21.50;67.50;;;;;;5048013;28;82334;-41
2022/06/24 02:18:52;;;;;;;;;;;21.50;67.50;;;;;;5048508;28;82179;-41
2022/06/24 02:21:17;;;;;;;;;;;21.40;67.50;;;;;;5047603;28;82021;-41
2022/06/24 02:23:43;;;;;;;;;;;21.40;67.60;;;;;;5048211;28;82397;-42
2022/06/24 02:26:09;;;;;;;;;;;21.40;67.50;;;;;;5047213;28;84027;-41
2022/06/24 02:28:35;;;;;;;;;;;21.40;67.70;;;;;;5047758;28;82037;-41
2022/06/24 02:31:01;;;;;;;;;;;21.40;67.50;;;;;;5050091;27;82348;-41
2022/06/24 02:33:27;;;;;;;;;;;21.40;67.60;;;;;;5047839;28;82095;-41
2022/06/24 02:35:52;;;;;;;;;;;21.30;67.60;;;;;;5047737;28;82313;-41
2022/06/24 02:38:18;;;;;;;;;;;21.30;67.60;;;;;;5047515;28;83130;-42
2022/06/24 02:40:50;;;;;;;;;;;21.30;67.70;;;;;;5047621;28;82230;-41
2022/06/24 02:43:16;;;;;;;;;;;21.30;67.80;;;;;;5048467;28;82454;-41
2022/06/24 02:45:43;;;;;;;;;;;21.30;67.80;;;;;;5047285;28;82981;-41
2022/06/24 02:48:08;;;;;;;;;;;21.20;67.80;;;;;;5047595;27;82106;-41
2022/06/24 02:50:37;;;;;;;;;;;21.20;67.80;;;;;;5046779;28;82878;-41
2022/06/24 03:04:31;;;;;;;;;;;21.20;67.30;;;;;;5045034;28;80074;-41
2022/06/24 03:06:56;;;;;;;;;;;21.10;67.90;;;;;;5043953;28;80496;-42
2022/06/24 03:09:22;;;;;;;;;;;21.10;67.90;;;;;;5043816;28;80699;-41
2022/06/24 03:11:47;;;;;;;;;;;21.10;67.80;;;;;;5043757;28;80645;-41
2022/06/24 03:14:13;;;;;;;;;;;21.10;67.80;;;;;;5043722;28;80306;-41
2022/06/24 03:16:38;;;;;;;;;;;21.10;67.80;;;;;;5043799;28;80847;-42
2022/06/24 03:19:04;;;;;;;;;;;21.00;67.90;;;;;;5043487;28;81194;-42
2022/06/24 03:21:30;;;;;;;;;;;21.00;67.90;;;;;;5043768;28;80341;-41
2022/06/24 03:23:55;;;;;;;;;;;21.10;67.90;;;;;;5046097;28;80824;-42
2022/06/24 03:26:21;;;;;;;;;;;21.00;67.90;;;;;;5043578;28;80496;-41
2022/06/24 03:28:46;;;;;;;;;;;21.00;67.90;;;;;;5043568;28;81109;-42
2022/06/24 03:31:12;;;;;;;;;;;21.00;68.00;;;;;;5043288;28;81300;-41
2022/06/24 03:33:38;;;;;;;;;;;20.90;68.00;;;;;;5043095;27;80359;-44
2022/06/24 03:36:10;;;;;;;;;;;21.00;67.90;;;;;;5043416;28;81031;-42
2022/06/24 03:38:35;;;;;;;;;;;21.00;68.10;;;;;;5043123;27;83229;-41
2022/06/24 03:41:01;;;;;;;;;;;21.00;68.10;;;;;;5042918;28;80273;-42
2022/06/24 03:43:26;;;;;;;;;;;20.90;68.10;;;;;;5043356;28;80640;-41
2022/06/24 03:46:01;;;;;;;;;;;20.90;68.20;;;;;;5045409;27;81828;-42
2022/06/24 03:48:27;;;;;;;;;;;20.90;68.10;;;;;;5043186;27;81367;-42
2022/06/24 03:50:53;;;;;;;;;;;20.90;68.00;;;;;;5041902;28;81043;-42
2022/06/24 03:53:18;;;;;;;;;;;20.90;67.90;;;;;;5042992;28;81286;-41
2022/06/24 03:55:47;;;;;;;;;;;20.90;68.10;;;;;;5042937;28;80796;-42
2022/06/24 03:58:13;;;;;;;;;;;20.80;68.10;;;;;;5042903;28;80660;-42
2022/06/24 04:00:38;;;;;;;;;;;20.80;68.10;;;;;;5043089;28;80260;-41
2022/06/24 04:03:04;;;;;;;;;;;20.90;68.10;;;;;;5042334;28;80705;-42
2022/06/24 04:05:29;;;;;;;;;;;20.80;68.10;;;;;;5029390;28;81357;-41
2022/06/24 04:07:56;;;;;;;;;;;20.80;68.10;;;;;;5032074;28;80398;-41
2022/06/24 04:10:21;;;;;;;;;;;20.80;68.10;;;;;;5029313;28;81128;-42
2022/06/24 04:12:47;;;;;;;;;;;20.80;68.20;;;;;;5029434;28;80355;-41
2022/06/24 04:15:17;;;;;;;;;;;20.80;68.10;;;;;;5029491;28;80961;-42
2022/06/24 04:17:44;;;;;;;;;;;20.80;68.20;;;;;;5029031;28;82703;-42
2022/06/24 04:20:10;;;;;;;;;;;20.80;68.30;;;;;;5029241;28;80959;-42
2022/06/24 04:22:36;;;;;;;;;;;20.80;68.30;;;;;;5028791;28;82706;-42
2022/06/24 04:25:02;;;;;;;;;;;20.80;68.30;;;;;;5028910;28;81767;-41
2022/06/24 04:27:28;;;;;;;;;;;20.80;68.30;;;;;;5028909;28;80419;-41
2022/06/24 04:30:04;;;;;;;;;;;20.80;68.30;;;;;;5031786;28;80590;-42
2022/06/24 04:32:29;;;;;;;;;;;20.70;68.20;;;;;;5028795;28;80344;-42
2022/06/24 04:34:55;;;;;;;;;;;20.70;68.20;;;;;;5029065;28;80620;-41
2022/06/24 04:37:20;;;;;;;;;;;20.70;68.20;;;;;;5028775;28;81222;-43
2022/06/24 04:39:46;;;;;;;;;;;20.70;68.30;;;;;;5029057;28;80476;-42
2022/06/24 04:42:11;;;;;;;;;;;20.60;68.40;;;;;;5029070;28;80667;-42
2022/06/24 04:44:37;;;;;;;;;;;20.60;68.40;;;;;;5029000;28;81379;-42
2022/06/24 04:47:03;;;;;;;;;;;20.60;68.40;;;;;;5028965;28;80154;-42
2022/06/24 04:49:28;;;;;;;;;;;20.60;68.40;;;;;;5028987;28;80587;-42
2022/06/24 04:51:54;;;;;;;;;;;20.60;68.40;;;;;;5031125;28;80586;-42
2022/06/24 04:54:20;;;;;;;;;;;20.60;68.70;;;;;;5028253;28;81248;-42
2022/06/24 04:56:46;;;;;;;;;;;20.60;68.70;;;;;;5028719;28;80683;-42
2022/06/24 04:59:11;;;;;;;;;;;20.60;68.80;;;;;;5028713;28;80320;-42
2022/06/24 05:01:37;;;;;;;;;;;20.60;68.70;;;;;;5028977;28;80884;-42
2022/06/24 05:04:03;;;;;;;;;;;20.60;68.70;;;;;;5028187;28;81208;-42
2022/06/24 05:06:28;;;;;;;;;;;20.60;68.70;;;;;;5028362;28;80394;-41
2022/06/24 05:08:54;;;;;;;;;;;20.60;68.70;;;;;;5028468;28;82141;-42
2022/06/24 05:11:19;;;;;;;;;;;20.60;68.60;;;;;;5028321;28;80788;-42
2022/06/24 05:13:45;;;;;;;;;;;20.60;68.60;;;;;;5030958;28;80274;-44
2022/06/24 05:16:10;;;;;;;;;;;20.60;68.70;;;;;;5027382;28;80894;-41
2022/06/24 05:18:36;;;;;;;;;;;20.60;68.60;;;;;;5028033;28;80396;-42
2022/06/24 05:21:02;;;;;;;;;;;20.60;68.70;;;;;;5028462;28;80310;-41
2022/06/24 05:23:28;;;;;;;;;;;20.60;68.70;;;;;;5027903;28;82807;-41
2022/06/24 05:25:54;;;;;;;;;;;20.60;68.70;;;;;;5028233;28;80216;-41
2022/06/24 05:28:19;;;;;;;;;;;20.60;68.80;;;;;;5027988;28;81522;-41
2022/06/24 05:30:45;;;;;;;;;;;20.50;68.80;;;;;;5028223;28;81379;-43
2022/06/24 05:33:10;;;;;;;;;;;20.50;68.60;;;;;;5030935;28;80324;-41
2022/06/24 05:35:36;;;;;;;;;;;20.50;68.70;;;;;;5027997;28;81329;-42
2022/06/24 05:38:01;;;;;;;;;;;20.50;68.80;;;;;;5027789;28;80611;-41
2022/06/24 05:40:27;;;;;;;;;;;20.50;68.80;;;;;;5028157;28;80811;-41
2022/06/24 05:42:52;;;;;;;;;;;20.50;68.80;;;;;;5027962;28;81253;-42
2022/06/24 05:45:18;;;;;;;;;;;20.50;68.70;;;;;;5028030;28;80151;-41
2022/06/24 05:47:43;;;;;;;;;;;20.50;68.80;;;;;;5027812;28;80587;-42
2022/06/24 05:50:09;;;;;;;;;;;20.50;68.60;;;;;;5027780;28;81290;-42
2022/06/24 05:55:19;;;;;;;;;;;20.60;68.50;;;;;;5030644;28;80237;-42
2022/06/24 05:57:44;;;;;;;;;;;20.60;68.50;;;;;;5027739;28;80178;-41
2022/06/24 06:00:10;;;;;;;;;;;20.60;68.40;;;;;;5027804;28;80600;-42
2022/06/24 06:02:35;;;;;;;;;;;20.60;68.50;;;;;;5027200;28;81263;-41
2022/06/24 06:05:01;;;;;;;;;;;20.60;68.60;;;;;;5027760;28;80446;-41
2022/06/24 06:07:27;;;;;;;;;;;20.60;68.50;;;;;;5027847;28;80257;-42
2022/06/24 06:09:52;;;;;;;;;;;20.70;68.50;;;;;;5027068;28;81855;-42
2022/06/24 06:12:18;;;;;;;;;;;20.70;68.70;;;;;;5027577;28;80283;-42
2022/06/24 06:14:44;;;;;;;;;;;20.70;68.50;;;;;;5027520;28;81278;-42
2022/06/24 06:17:10;;;;;;;;;;;20.70;68.50;;;;;;5030134;28;80722;-42
2022/06/24 06:19:36;;;;;;;;;;;20.70;68.70;;;;;;5027425;28;80974;-41
2022/06/24 06:22:02;;;;;;;;;;;20.70;68.70;;;;;;5027246;28;81087;-41
2022/06/24 06:24:29;;;;;;;;;;;20.70;68.60;;;;;;5027128;28;80325;-41
2022/06/24 06:26:54;;;;;;;;;;;20.70;68.60;;;;;;5026868;28;82228;-42
2022/06/24 06:29:20;;;;;;;;;;;20.70;68.60;;;;;;5027162;28;81234;-41
2022/06/24 06:31:45;;;;;;;;;;;20.70;68.50;;;;;;5027490;28;80334;-42
2022/06/24 06:34:11;;;;;;;;;;;20.70;68.70;;;;;;5027235;28;80683;-42
2022/06/24 06:36:37;;;;;;;;;;;20.70;68.50;;;;;;5026963;28;81263;-42
2022/06/24 06:39:02;;;;;;;;;;;20.70;68.80;;;;;;5029849;28;80374;-41
2022/06/24 06:41:28;;;;;;;;;;;20.70;68.60;;;;;;5027336;28;81586;-41
2022/06/24 06:43:53;;;;;;;;;;;20.80;68.60;;;;;;5027067;28;80425;-41
2022/06/24 06:46:19;;;;;;;;;;;20.70;68.60;;;;;;5027263;28;80861;-43
2022/06/24 06:48:44;;;;;;;;;;;20.80;68.60;;;;;;5026812;28;81021;-42
2022/06/24 06:51:10;;;;;;;;;;;20.80;68.70;;;;;;5026875;28;80770;-41
2022/06/24 06:53:35;;;;;;;;;;;20.80;68.50;;;;;;5026536;28;80873;-41
2022/06/24 06:56:01;;;;;;;;;;;20.80;68.50;;;;;;5026690;28;81665;-41
2022/06/24 06:58:27;;;;;;;;;;;20.80;68.60;;;;;;5026977;28;80132;-41
2022/06/24 07:00:52;;;;;;;;;;;20.80;68.80;;;;;;5029550;28;80159;-41
2022/06/24 07:03:18;;;;;;;;;;;20.80;68.70;;;;;;5026284;28;80335;-41
2022/06/24 07:05:44;;;;;;;;;;;20.80;68.50;;;;;;5026826;28;80235;-41
2022/06/24 07:08:10;;;;;;;;;;;20.80;68.60;;;;;;5025153;28;84296;-41
2022/06/24 07:10:36;;;;;;;;;;;20.80;68.60;;;;;;5025907;28;81119;-42
2022/06/24 07:13:02;;;;;;;;;;;20.80;68.70;;;;;;5025516;28;82025;-42
2022/06/24 07:15:27;;;;;;;;;;;20.80;68.80;;;;;;5025523;28;83382;-41
2022/06/24 07:17:52;;;;;;;;;;;20.80;69.00;;;;;;5024930;28;83019;-43
2022/06/24 07:20:18;;;;;;;;;;;20.80;69.10;;;;;;5027748;28;83559;-41
2022/06/24 07:22:44;;;;;;;;;;;20.80;68.80;;;;;;5025578;28;81847;-41
2022/06/24 07:25:09;;;;;;;;;;;20.80;68.80;;;;;;5025310;28;84095;-41
2022/06/24 07:27:35;;;;;;;;;;;20.80;68.80;;;;;;5025479;28;82215;-41
2022/06/24 07:30:02;;;;;;;;;;;20.80;68.80;;;;;;5025169;28;81995;-41
2022/06/24 07:32:28;;;;;;;;;;;20.80;69.00;;;;;;5025322;28;82437;-41
2022/06/24 07:34:53;;;;;;;;;;;20.80;68.80;;;;;;5025748;28;82227;-42
2022/06/24 07:37:19;;;;;;;;;;;20.80;68.60;;;;;;5024994;28;82049;-41
2022/06/24 07:39:44;;;;;;;;;;;20.80;68.60;;;;;;5027191;28;82587;-42
2022/06/24 07:42:10;;;;;;;;;;;20.80;68.60;;;;;;5030679;28;83844;-43
2022/06/24 07:44:35;;;;;;;;;;;20.80;68.70;;;;;;5028844;28;83364;-42
2022/06/24 07:47:01;;;;;;;;;;;20.80;68.80;;;;;;5028272;28;84067;-41
2022/06/24 07:49:26;;;;;;;;;;;20.80;68.60;;;;;;5028552;28;82053;-41
2022/06/24 07:51:52;;;;;;;;;;;20.90;68.60;;;;;;5028444;28;82295;-41
2022/06/24 07:54:17;;;;;;;;;;;20.90;68.70;;;;;;5028259;28;83185;-41
2022/06/24 07:56:58;;;;;;;;;;;20.90;68.90;;;;;;5028547;28;82359;-42
2022/06/24 07:59:25;;;;;;;;;;;20.90;68.80;;;;;;5028737;28;83844;-41
2022/06/24 08:01:52;;;;;;;;;;;20.90;68.60;;;;;;5028382;28;83011;-42
2022/06/24 08:04:18;;;;;;;;;;;20.90;69.00;;;;;;5030448;28;82054;-42
2022/06/24 08:06:49;;;;;;;;;;;20.90;68.70;;;;;;5027533;28;83887;-41
2022/06/24 08:09:22;;;;;;;;;;;20.90;68.70;;;;;;5026946;28;82023;-42
2022/06/24 08:11:47;;;;;;;;;;;20.90;68.80;;;;;;5028268;28;81892;-41
2022/06/24 08:14:14;;;;;;;;;;;20.90;68.50;;;;;;5028073;28;83004;-41
2022/06/24 08:16:39;;;;;;;;;;;20.90;68.60;;;;;;5026573;28;81955;-42
2022/06/24 08:19:05;;;;;;;;;;;20.90;68.60;;;;;;5028022;28;82407;-42
2022/06/24 08:21:30;;;;;;;;;;;20.90;68.50;;;;;;5027941;28;82896;-41
2022/06/24 08:23:56;;;;;;;;;;;20.90;68.40;;;;;;5028554;28;81228;-41
2022/06/24 08:26:22;;;;;;;;;;;20.90;68.50;;;;;;5030557;28;82268;-41
2022/06/24 08:28:47;;;;;;;;;;;21.00;68.20;;;;;;5027849;28;82047;-41
2022/06/24 08:31:13;;;;;;;;;;;20.90;68.60;;;;;;5027637;28;82946;-41
2022/06/24 08:33:39;;;;;;;;;;;20.90;68.30;;;;;;5027574;28;82285;-42
2022/06/24 08:36:04;;;;;;;;;;;20.90;68.30;;;;;;5028157;28;81973;-42
2022/06/24 08:38:30;;;;;;;;;;;20.90;68.20;;;;;;5027491;28;84004;-43
2022/06/24 08:40:57;;;;;;;;;;;20.90;68.00;;;;;;5027575;28;83728;-42
2022/06/24 08:43:23;;;;;;;;;;;20.90;68.10;;;;;;5027599;28;82125;-41
2022/06/24 08:45:49;;;;;;;;;;;20.90;68.30;;;;;;5027652;28;84158;-41
2022/06/24 08:48:15;;;;;;;;;;;20.90;68.20;;;;;;5030185;28;84576;-41
2022/06/24 08:50:40;;;;;;;;;;;21.00;68.20;;;;;;5027654;28;81872;-42
2022/06/24 08:53:08;;;;;;;;;;;21.00;68.10;;;;;;5027199;28;83685;-42
2022/06/24 08:55:34;;;;;;;;;;;21.00;68.60;;;;;;5026790;28;82979;-42
2022/06/24 08:58:00;;;;;;;;;;;20.90;68.30;;;;;;5027658;28;82572;-41
2022/06/24 09:00:25;;;;;;;;;;;21.00;68.30;;;;;;5027246;28;84408;-43
2022/06/24 09:02:51;;;;;;;;;;;21.00;68.10;;;;;;5026750;28;82061;-42
2022/06/24 09:05:16;;;;;;;;;;;21.00;68.40;;;;;;5027574;28;82368;-41
2022/06/24 09:07:42;;;;;;;;;;;21.00;68.10;;;;;;5027529;28;82804;-41
2022/06/24 09:10:10;;;;;;;;;;;21.00;68.10;;;;;;5030201;28;82107;-41
2022/06/24 09:12:36;;;;;;;;;;;21.00;68.10;;;;;;5027344;28;83574;-42
2022/06/24 09:15:03;;;;;;;;;;;21.00;68.20;;;;;;5027410;28;82106;-41
2022/06/24 09:17:29;;;;;;;;;;;20.90;68.10;;;;;;5027012;28;82377;-41
2022/06/24 09:20:02;;;;;;;;;;;21.00;68.80;;;;;;5026445;28;83968;-41
2022/06/24 09:22:28;;;;;;;;;;;21.00;68.10;;;;;;5027464;28;82210;-42
2022/06/24 09:24:53;;;;;;;;;;;21.00;68.30;;;;;;5027260;28;82445;-41
2022/06/24 09:27:20;;;;;;;;;;;21.00;68.30;;;;;;5026628;28;83091;-42
2022/06/24 09:29:48;;;;;;;;;;;21.00;68.50;;;;;;5029517;28;82115;-42
2022/06/24 09:32:13;;;;;;;;;;;21.00;68.80;;;;;;5026465;28;82975;-41
2022/06/24 09:34:56;;;;;;;;;;;21.00;68.80;;;;;;5027034;28;82336;-43
2022/06/24 09:37:41;;;;;;;;;;;21.00;68.50;;;;;;5027524;28;82392;-41
2022/06/24 09:40:16;;;;;;;;;;;21.00;68.60;;;;;;5026502;28;84381;-41
2022/06/24 09:42:42;;;;;;;;;;;21.00;69.00;;;;;;5026664;28;82027;-41
2022/06/24 09:45:08;;;;;;;;;;;21.10;68.40;;;;;;5026388;28;83059;-42
2022/06/24 09:47:40;;;;;;;;;;;21.10;68.50;;;;;;5026575;28;83229;-42
2022/06/24 09:50:06;;;;;;;;;;;21.10;68.40;;;;;;5026546;28;82125;-41
2022/06/24 09:52:31;;;;;;;;;;;21.10;69.00;;;;;;5028973;28;84044;-41
2022/06/24 09:54:57;;;;;;;;;;;21.10;69.10;;;;;;5026199;28;82171;-43
2022/06/24 09:57:23;;;;;;;;;;;21.00;69.20;;;;;;5026755;28;82425;-41
2022/06/24 10:02:34;;;;;;;;;;;21.10;69.20;;;;;;5025911;28;81233;-42
2022/06/24 10:05:01;;;;;;;;;;;21.10;68.90;;;;;;5026850;28;81945;-42
2022/06/24 10:07:30;;;;;;;;;;;21.10;68.90;;;;;;5026029;28;84410;-41
2022/06/24 10:09:55;;;;;;;;;;;21.20;68.90;;;;;;5025540;28;82975;-42
2022/06/24 10:12:21;;;;;;;;;;;21.20;68.80;;;;;;5026339;28;83115;-41
2022/06/24 10:14:47;;;;;;;;;;;21.20;68.90;;;;;;5028697;28;84544;-43
2022/06/24 10:17:14;;;;;;;;;;;21.20;68.80;;;;;;5026324;28;81877;-42
2022/06/24 10:19:39;;;;;;;;;;;21.20;68.90;;;;;;5026218;28;82964;-41
2022/06/24 10:22:05;;;;;;;;;;;21.20;68.80;;;;;;5026176;28;82047;-41
2022/06/24 10:24:41;;;;;;;;;;;21.30;68.80;;;;;;5026082;28;82434;-42
2022/06/24 10:27:07;;;;;;;;;;;21.30;68.70;;;;;;5026496;28;83599;-42
2022/06/24 10:29:33;;;;;;;;;;;21.30;68.80;;;;;;5026233;28;82042;-42
2022/06/24 10:32:00;;;;;;;;;;;21.30;68.80;;;;;;5025975;28;83874;-42
2022/06/24 10:34:25;;;;;;;;;;;21.30;68.70;;;;;;5025237;28;84225;-41
2022/06/24 10:37:17;;;;;;;;;;;21.30;68.80;;;;;;5028769;28;81940;-42
2022/06/24 10:39:47;;;;;;;;;;;21.30;68.80;;;;;;5023389;28;82926;-42
2022/06/24 10:42:20;;;;;;;;;;;21.30;68.70;;;;;;5025829;28;81977;-44
2022/06/24 10:44:59;;;;;;;;;;;21.30;68.80;;;;;;5025779;28;84081;-42
2022/06/24 10:47:27;;;;;;;;;;;21.40;68.80;;;;;;5025334;28;83064;-42
2022/06/24 10:49:56;;;;;;;;;;;21.40;68.60;;;;;;5025993;28;82091;-42
2022/06/24 10:52:35;;;;;;;;;;;21.40;68.60;;;;;;5026086;28;83918;-42
2022/06/24 10:55:28;;;;;;;;;;;21.40;68.60;;;;;;5025345;28;82223;-42
2022/06/24 10:57:57;;;;;;;;;;;21.40;68.40;;;;;;5025628;28;82018;-43
2022/06/24 11:00:24;;;;;;;;;;;21.50;68.30;;;;;;5027728;28;82797;-41
2022/06/24 11:03:02;;;;;;;;;;;21.40;68.60;;;;;;5025362;28;82162;-41
2022/06/24 11:05:34;;;;;;;;;;;21.40;68.40;;;;;;5025835;28;82339;-41
2022/06/24 11:08:00;;;;;;;;;;;21.40;68.40;;;;;;5025292;28;82806;-41
2022/06/24 11:10:27;;;;;;;;;;;21.50;68.30;;;;;;5025111;28;82067;-41
2022/06/24 11:12:58;;;;;;;;;;;21.50;68.30;;;;;;5025471;28;82000;-42
2022/06/24 11:15:35;;;;;;;;;;;21.50;68.20;;;;;;5027881;28;84249;-43
2022/06/24 11:18:11;;;;;;;;;;;21.50;68.40;;;;;;5029858;28;81429;-42
2022/06/24 11:20:40;;;;;;;;;;;21.60;68.20;;;;;;5028960;28;82013;-43
2022/06/24 11:23:10;;;;;;;;;;;21.60;68.20;;;;;;5031372;28;82920;-41
2022/06/24 11:25:37;;;;;;;;;;;21.60;68.20;;;;;;5028175;28;83824;-41
2022/06/24 11:28:03;;;;;;;;;;;21.60;68.20;;;;;;5028775;28;83233;-42
2022/06/24 11:30:28;;;;;;;;;;;21.60;68.20;;;;;;5029024;28;81989;-42
2022/06/24 11:32:55;;;;;;;;;;;21.60;68.10;;;;;;5028481;28;82739;-42
2022/06/24 11:35:22;;;;;;;;;;;21.60;68.00;;;;;;5028670;28;83096;-42
2022/06/24 11:37:48;;;;;;;;;;;21.70;68.00;;;;;;5028761;28;82020;-41
2022/06/24 11:40:20;;;;;;;;;;;21.70;67.90;;;;;;5028820;28;82404;-42
2022/06/24 11:42:46;;;;;;;;;;;21.70;68.50;;;;;;5031714;28;83528;-41
2022/06/24 11:45:11;;;;;;;;;;;21.70;67.90;;;;;;5028504;28;82965;-41
2022/06/24 11:47:37;;;;;;;;;;;21.70;68.00;;;;;;5028664;28;82886;-42
2022/06/24 11:50:03;;;;;;;;;;;21.80;67.90;;;;;;5027905;28;83034;-42
2022/06/24 11:52:28;;;;;;;;;;;21.80;67.90;;;;;;5028612;28;82531;-43
2022/06/24 11:54:54;;;;;;;;;;;21.80;67.80;;;;;;5027986;28;84714;-42
2022/06/24 11:57:21;;;;;;;;;;;21.80;67.80;;;;;;5028559;28;82724;-41
2022/06/24 11:59:47;;;;;;;;;;;21.80;67.70;;;;;;5028410;28;83023;-41
2022/06/24 12:02:14;;;;;;;;;;;21.90;67.70;;;;;;5027694;28;83177;-40
2022/06/24 12:04:40;;;;;;;;;;;21.90;67.70;;;;;;5030831;28;81980;-41
2022/06/24 12:07:07;;;;;;;;;;;21.90;67.80;;;;;;5028500;28;83819;-42
2022/06/24 12:09:32;;;;;;;;;;;21.90;67.70;;;;;;5028250;28;82067;-42
2022/06/24 12:12:08;;;;;;;;;;;21.90;67.70;;;;;;5028379;28;82205;-42
2022/06/24 12:14:33;;;;;;;;;;;21.90;67.60;;;;;;5027218;28;85312;-41
2022/06/24 12:17:00;;;;;;;;;;;21.90;67.70;;;;;;5028429;28;83410;-43
2022/06/24 12:19:31;;;;;;;;;;;21.90;67.80;;;;;;5027713;28;82453;-42
2022/06/24 12:22:11;;;;;;;;;;;21.90;67.70;;;;;;5027788;28;82635;-42
2022/06/24 12:24:37;;;;;;;;;;;22.00;67.70;;;;;;5027543;28;81907;-41
2022/06/24 12:27:04;;;;;;;;;;;22.00;67.70;;;;;;5030712;28;82328;-43
2022/06/24 12:29:32;;;;;;;;;;;22.00;67.50;;;;;;5027827;28;82051;-42
2022/06/24 12:31:58;;;;;;;;;;;22.10;67.60;;;;;;5027957;28;84261;-41
2022/06/24 12:34:34;;;;;;;;;;;22.10;67.60;;;;;;5027732;28;82970;-42
2022/06/24 12:37:03;;;;;;;;;;;22.00;67.50;;;;;;5028094;28;82035;-42
2022/06/24 12:39:32;;;;;;;;;;;22.10;67.50;;;;;;5027075;28;83302;-41
2022/06/24 12:41:58;;;;;;;;;;;22.10;67.50;;;;;;5027410;28;84362;-42
2022/06/24 12:44:24;;;;;;;;;;;22.10;67.50;;;;;;5027563;28;82063;-41
2022/06/24 12:52:28;;;;;;;;;;;22.20;67.40;;;;;;5027019;28;81937;-42
2022/06/24 12:54:54;;;;;;;;;;;22.20;67.40;;;;;;5026963;28;82383;-42
2022/06/24 12:57:19;;;;;;;;;;;22.20;67.40;;;;;;5026479;28;81433;-42
2022/06/24 12:59:45;;;;;;;;;;;22.20;67.50;;;;;;5027735;28;82005;-43
2022/06/24 13:02:10;;;;;;;;;;;22.20;67.50;;;;;;5026972;28;83092;-41
2022/06/24 13:04:36;;;;;;;;;;;22.20;67.40;;;;;;5026437;28;82889;-43
2022/06/24 13:07:03;;;;;;;;;;;22.20;67.40;;;;;;5027413;28;83424;-42
2022/06/24 13:09:28;;;;;;;;;;;22.20;67.50;;;;;;5026549;28;83475;-42
2022/06/24 13:11:54;;;;;;;;;;;22.20;67.30;;;;;;5030235;28;82164;-41
2022/06/24 13:14:19;;;;;;;;;;;22.20;67.30;;;;;;5027038;28;83171;-42
2022/06/24 13:16:45;;;;;;;;;;;22.30;67.30;;;;;;5027226;28;82169;-43
2022/06/24 13:19:10;;;;;;;;;;;22.30;67.30;;;;;;5027217;28;82471;-41
2022/06/24 13:21:36;;;;;;;;;;;22.40;67.20;;;;;;5027677;28;82367;-41
2022/06/24 13:24:01;;;;;;;;;;;22.40;67.20;;;;;;5026988;28;82419;-42
2022/06/24 13:26:27;;;;;;;;;;;22.40;67.30;;;;;;5027220;28;82490;-41
2022/06/24 13:28:52;;;;;;;;;;;22.40;67.10;;;;;;5026391;28;83259;-42
2022/06/24 13:31:18;;;;;;;;;;;22.50;67.20;;;;;;5027052;28;82181;-41
2022/06/24 13:33:43;;;;;;;;;;;22.50;67.10;;;;;;5029451;28;82406;-41
2022/06/24 13:36:09;;;;;;;;;;;22.50;67.00;;;;;;5026522;28;81979;-42
2022/06/24 13:38:34;;;;;;;;;;;22.50;67.00;;;;;;5024831;28;84630;-43
2022/06/24 13:41:00;;;;;;;;;;;22.50;67.10;;;;;;5026607;28;82626;-42
2022/06/24 13:43:26;;;;;;;;;;;22.50;67.30;;;;;;5026929;28;82085;-41
2022/06/24 13:45:51;;;;;;;;;;;22.50;67.20;;;;;;5027238;28;82803;-43
2022/06/24 13:48:17;;;;;;;;;;;22.50;67.30;;;;;;5026531;28;82286;-42
2022/06/24 13:50:42;;;;;;;;;;;22.50;67.30;;;;;;5026864;28;82064;-41
2022/06/24 13:53:08;;;;;;;;;;;22.50;67.20;;;;;;5028326;28;83827;-42
2022/06/24 13:55:34;;;;;;;;;;;22.50;67.20;;;;;;5026219;28;82159;-42
2022/06/24 13:57:59;;;;;;;;;;;22.50;67.10;;;;;;5026727;28;82502;-41
2022/06/24 14:00:25;;;;;;;;;;;22.60;67.00;;;;;;5026467;28;83125;-41
2022/06/24 14:02:50;;;;;;;;;;;22.60;66.90;;;;;;5026128;28;82122;-42
2022/06/24 14:05:16;;;;;;;;;;;22.60;66.90;;;;;;5026673;28;82618;-41
2022/06/24 14:07:41;;;;;;;;;;;22.60;67.00;;;;;;5026276;28;82082;-41
2022/06/24 14:10:07;;;;;;;;;;;22.60;67.00;;;;;;5026883;28;81296;-42
2022/06/24 14:12:33;;;;;;;;;;;22.70;67.20;;;;;;5026056;28;83402;-41
2022/06/24 14:14:58;;;;;;;;;;;22.60;67.20;;;;;;5029079;28;83278;-42
2022/06/24 14:17:24;;;;;;;;;;;22.70;67.20;;;;;;5025706;28;82843;-42
2022/06/24 14:19:49;;;;;;;;;;;22.60;67.10;;;;;;5026247;28;82490;-41
2022/06/24 14:22:15;;;;;;;;;;;22.70;67.10;;;;;;5026451;28;81716;-42
2022/06/24 14:24:41;;;;;;;;;;;22.70;67.20;;;;;;5025568;28;83925;-41
2022/06/24 14:27:07;;;;;;;;;;;22.70;67.10;;;;;;5026115;28;83063;-42
2022/06/24 14:29:34;;;;;;;;;;;22.70;67.00;;;;;;5026208;28;82401;-42
2022/06/24 14:32:00;;;;;;;;;;;22.80;67.00;;;;;;5026283;28;82393;-42
2022/06/24 14:34:25;;;;;;;;;;;22.80;66.80;;;;;;5026409;28;82195;-41
2022/06/24 14:36:51;;;;;;;;;;;22.80;67.00;;;;;;5028799;28;82097;-42
2022/06/24 14:42:01;;;;;;;;;;;22.80;67.20;;;;;;5025573;28;82837;-41